createdAt,value
2019-05-23T00:02:35.322Z,11.26
2019-05-23T00:05:08.064Z,11.27
2019-05-23T00:07:36.976Z,11.21
2019-05-23T00:10:09.503Z,11.22
2019-05-23T00:12:43.054Z,11.22
2019-05-23T00:15:27.967Z,11.23
2019-05-23T00:17:57.557Z,11.21
2019-05-23T00:20:26.471Z,11.22
2019-05-23T00:22:55.803Z,11.17
2019-05-23T00:25:24.788Z,11.17
2019-05-23T00:27:54.325Z,11.18
2019-05-23T00:30:25.131Z,11.21
2019-05-23T00:32:56.841Z,11.17
2019-05-23T00:35:28.344Z,11.17
2019-05-23T00:37:57.602Z,11.15
2019-05-23T00:40:28.204Z,11.14
2019-05-23T00:42:58.508Z,11.19
2019-05-23T00:45:27.348Z,11.15
2019-05-23T00:47:57.357Z,11.19
2019-05-23T00:50:26.630Z,11.19
2019-05-23T00:52:56.992Z,11.16
2019-05-23T00:55:28.704Z,11.17
2019-05-23T00:57:58.994Z,11.16
2019-05-23T01:00:28.638Z,11.14
2019-05-23T01:02:58.770Z,11.16
2019-05-23T01:05:28.391Z,11.11
2019-05-23T01:07:58.090Z,11.11
2019-05-23T01:10:28.328Z,11.13
2019-05-23T01:12:58.444Z,11.06
2019-05-23T01:15:27.339Z,11.06
2019-05-23T01:17:56.662Z,11.12
2019-05-23T01:20:33.506Z,11.09
2019-05-23T01:23:03.917Z,11.07
2019-05-23T01:25:34.152Z,11.10
2019-05-23T01:28:04.058Z,11.04
2019-05-23T01:30:37.322Z,11.05
2019-05-23T01:33:06.876Z,11.03
2019-05-23T01:35:37.677Z,11.04
2019-05-23T01:38:08.135Z,11.06
2019-05-23T01:40:37.132Z,11.02
2019-05-23T01:43:07.690Z,11.04
2019-05-23T01:45:38.648Z,11.05
2019-05-23T01:48:07.498Z,11.08
2019-05-23T01:50:36.346Z,11.04
2019-05-23T01:53:06.556Z,11.08
2019-05-23T01:55:35.389Z,11.12
2019-05-23T01:58:05.698Z,11.06
2019-05-23T02:00:35.781Z,11.05
2019-05-23T02:03:05.483Z,10.98
2019-05-23T02:05:34.908Z,10.97
2019-05-23T02:08:04.302Z,10.95
2019-05-23T02:10:33.448Z,10.94
2019-05-23T02:13:02.374Z,10.91
2019-05-23T02:15:31.633Z,10.96
2019-05-23T02:18:01.927Z,10.95
2019-05-23T02:20:32.123Z,11.02
2019-05-23T02:23:01.410Z,10.96
2019-05-23T02:25:30.472Z,10.92
2019-05-23T02:28:00.283Z,10.97
2019-05-23T02:30:34.575Z,10.96
2019-05-23T02:33:02.981Z,10.92
2019-05-23T02:35:31.828Z,10.91
2019-05-23T02:38:12.485Z,10.91
2019-05-23T02:40:47.163Z,10.90
2019-05-23T02:43:21.490Z,10.90
2019-05-23T02:45:53.214Z,10.90
2019-05-23T02:48:25.847Z,10.82
2019-05-23T02:51:07.350Z,10.80
2019-05-23T02:53:39.787Z,10.76
2019-05-23T02:56:15.026Z,10.80
2019-05-23T02:59:01.871Z,10.76
2019-05-23T03:01:46.967Z,10.77
2019-05-23T03:04:26.692Z,10.74
2019-05-23T03:06:56.570Z,10.70
2019-05-23T03:09:29.787Z,10.72
2019-05-23T03:12:01.926Z,10.68
2019-05-23T03:14:34.726Z,10.68
2019-05-23T03:17:03.867Z,10.65
2019-05-23T03:19:39.485Z,10.65
2019-05-23T03:22:28.067Z,10.69
2019-05-23T03:25:00.147Z,10.62
2019-05-23T03:27:30.606Z,10.65
2019-05-23T03:30:00.121Z,10.63
2019-05-23T03:32:37.386Z,10.59
2019-05-23T03:35:11.877Z,10.55
2019-05-23T03:37:41.589Z,10.59
2019-05-23T03:40:11.246Z,10.62
2019-05-23T03:42:40.909Z,10.51
2019-05-23T03:45:11.730Z,10.53
2019-05-23T03:47:40.690Z,10.52
2019-05-23T03:50:10.911Z,10.52
2019-05-23T03:52:41.086Z,10.53
2019-05-23T03:55:12.226Z,10.51
2019-05-23T03:57:41.989Z,10.45
2019-05-23T04:00:14.826Z,10.49
2019-05-23T04:02:46.428Z,10.51
2019-05-23T04:05:16.668Z,10.54
2019-05-23T04:07:46.029Z,10.54
2019-05-23T04:10:15.707Z,10.53
2019-05-23T04:12:45.346Z,10.55
2019-05-23T04:15:14.608Z,10.54
2019-05-23T04:17:43.706Z,10.54
2019-05-23T04:20:13.226Z,10.55
2019-05-23T04:22:42.507Z,10.47
2019-05-23T04:25:11.849Z,10.53
2019-05-23T04:27:41.271Z,10.50
2019-05-23T04:30:11.969Z,10.54
2019-05-23T04:32:41.197Z,10.52
2019-05-23T04:35:10.721Z,10.46
2019-05-23T04:37:40.130Z,10.43
2019-05-23T04:40:12.039Z,10.41
2019-05-23T04:42:40.906Z,10.42
2019-05-23T04:45:09.975Z,10.34
2019-05-23T04:47:40.987Z,10.40
2019-05-23T04:50:13.188Z,10.41
2019-05-23T04:52:43.215Z,10.43
2019-05-23T04:55:13.306Z,10.44
2019-05-23T04:57:42.446Z,10.50
2019-05-23T05:00:15.189Z,10.44
2019-05-23T05:02:45.826Z,10.43
2019-05-23T05:05:15.068Z,10.44
2019-05-23T05:07:44.429Z,10.44
2019-05-23T05:10:15.706Z,10.49
2019-05-23T05:12:45.285Z,10.48
2019-05-23T05:15:14.606Z,10.45
2019-05-23T05:17:43.446Z,10.44
2019-05-23T05:20:13.106Z,10.44
2019-05-23T05:22:42.420Z,10.43
2019-05-23T05:25:12.166Z,10.48
2019-05-23T05:27:41.162Z,10.54
2019-05-23T05:30:10.728Z,10.53
2019-05-23T05:32:44.589Z,10.53
2019-05-23T05:35:10.550Z,10.53
2019-05-23T05:37:39.388Z,10.53
2019-05-23T05:40:09.842Z,10.56
2019-05-23T05:42:39.509Z,10.57
2019-05-23T05:45:10.066Z,10.62
2019-05-23T05:47:39.626Z,10.63
2019-05-23T05:50:11.325Z,10.68
2019-05-23T05:52:43.318Z,10.65
2019-05-23T05:55:12.837Z,10.68
2019-05-23T05:57:42.174Z,10.69
2019-05-23T06:00:28.349Z,10.71
2019-05-23T06:03:04.232Z,10.70
2019-05-23T06:05:48.229Z,10.68
2019-05-23T06:08:19.114Z,10.79
2019-05-23T06:10:48.309Z,10.82
2019-05-23T06:13:18.445Z,10.83
2019-05-23T06:15:47.808Z,10.83
2019-05-23T06:18:16.846Z,10.83
2019-05-23T06:20:47.389Z,10.81
2019-05-23T06:23:17.899Z,10.80
2019-05-23T06:25:46.926Z,10.77
2019-05-23T06:28:16.147Z,10.86
2019-05-23T06:30:47.016Z,10.78
2019-05-23T06:33:23.220Z,10.76
2019-05-23T06:35:46.730Z,10.74
2019-05-23T06:38:15.766Z,10.75
2019-05-23T06:40:44.599Z,10.76
2019-05-23T06:43:13.956Z,10.78
2019-05-23T06:45:44.845Z,10.79
2019-05-23T06:48:16.446Z,10.78
2019-05-23T06:50:45.887Z,10.83
2019-05-23T06:53:15.061Z,10.83
2019-05-23T06:55:44.777Z,10.89
2019-05-23T06:58:13.909Z,10.81
2019-05-23T07:00:43.715Z,10.71
2019-05-23T07:03:13.836Z,10.68
2019-05-23T07:05:43.266Z,10.69
2019-05-23T07:08:12.128Z,10.73
2019-05-23T07:10:44.147Z,10.64
2019-05-23T07:13:13.607Z,10.66
2019-05-23T07:15:43.154Z,10.65
2019-05-23T07:18:12.088Z,10.59
2019-05-23T07:20:41.027Z,10.64
2019-05-23T07:23:13.143Z,10.67
2019-05-23T07:25:42.312Z,10.70
2019-05-23T07:28:11.227Z,10.71
2019-05-23T07:30:40.455Z,10.68
2019-05-23T07:33:09.986Z,10.72
2019-05-23T07:35:38.993Z,10.66
2019-05-23T07:38:07.914Z,10.67
2019-05-23T07:40:36.821Z,10.65
2019-05-23T07:43:07.048Z,10.66
2019-05-23T07:45:39.997Z,10.69
2019-05-23T07:48:08.370Z,10.71
2019-05-23T07:50:37.363Z,10.71
2019-05-23T07:53:07.925Z,10.66
2019-05-23T07:55:41.394Z,10.71
2019-05-23T07:58:13.560Z,10.74
2019-05-23T08:00:43.027Z,10.72
2019-05-23T08:03:12.221Z,10.81
2019-05-23T08:05:41.795Z,10.81
2019-05-23T08:08:10.948Z,10.74
2019-05-23T08:10:40.166Z,10.74
2019-05-23T08:13:09.066Z,10.71
2019-05-23T08:15:38.007Z,10.72
2019-05-23T08:18:07.027Z,10.78
2019-05-23T08:20:35.985Z,10.80
2019-05-23T08:23:05.029Z,10.84
2019-05-23T08:25:34.698Z,10.91
2019-05-23T08:28:05.166Z,10.86
2019-05-23T08:30:34.228Z,10.92
2019-05-23T08:33:03.550Z,10.93
2019-05-23T08:35:32.786Z,10.90
2019-05-23T08:38:01.774Z,10.88
2019-05-23T08:40:33.501Z,11.03
2019-05-23T08:43:02.468Z,10.98
2019-05-23T08:45:31.386Z,10.90
2019-05-23T08:48:00.486Z,10.89
2019-05-23T08:50:30.350Z,10.92
2019-05-23T08:53:00.965Z,10.86
2019-05-23T08:55:30.206Z,10.88
2019-05-23T08:57:59.727Z,10.96
2019-05-23T09:00:33.149Z,10.96
2019-05-23T09:03:06.833Z,11.02
2019-05-23T09:05:38.966Z,10.94
2019-05-23T09:08:09.496Z,10.93
2019-05-23T09:10:39.702Z,10.90
2019-05-23T09:13:08.910Z,10.92
2019-05-23T09:15:37.806Z,10.94
2019-05-23T09:18:07.348Z,10.92
2019-05-23T09:20:37.555Z,10.92
2019-05-23T09:23:06.667Z,10.91
2019-05-23T09:25:36.005Z,10.91
2019-05-23T09:28:07.146Z,10.91
2019-05-23T09:30:36.426Z,10.88
2019-05-23T09:33:05.870Z,10.85
2019-05-23T09:35:35.531Z,10.82
2019-05-23T09:38:05.075Z,10.80
2019-05-23T09:40:34.006Z,10.72
2019-05-23T09:43:04.528Z,10.76
2019-05-23T09:45:33.578Z,10.73
2019-05-23T09:48:02.806Z,10.73
2019-05-23T09:50:31.666Z,10.70
2019-05-23T09:53:00.849Z,10.69
2019-05-23T09:55:30.509Z,10.78
2019-05-23T09:57:59.508Z,10.77
2019-05-23T10:00:29.946Z,10.73
2019-05-23T10:03:00.010Z,10.74
2019-05-23T10:05:41.691Z,10.81
2019-05-23T10:08:00.071Z,10.76
2019-05-23T10:10:30.326Z,10.69
2019-05-23T10:12:59.167Z,10.70
2019-05-23T10:15:40.426Z,10.73
2019-05-23T10:18:10.926Z,10.74
2019-05-23T10:20:40.106Z,10.76
2019-05-23T10:23:08.926Z,10.83
2019-05-23T10:25:38.851Z,10.87
2019-05-23T10:28:08.107Z,10.88
2019-05-23T10:30:37.046Z,10.83
2019-05-23T10:33:11.690Z,10.95
2019-05-23T10:35:36.873Z,10.89
2019-05-23T10:38:05.891Z,10.94
2019-05-23T10:40:35.107Z,10.92
2019-05-23T10:43:04.063Z,10.90
2019-05-23T10:45:33.075Z,10.99
2019-05-23T10:48:02.323Z,10.96
2019-05-23T10:50:44.204Z,10.98
2019-05-23T10:53:02.057Z,10.97
2019-05-23T10:55:31.086Z,11.01
2019-05-23T10:57:59.949Z,10.97
2019-05-23T11:00:30.906Z,11.00
2019-05-23T11:03:00.126Z,10.90
2019-05-23T11:05:29.286Z,10.83
2019-05-23T11:07:59.649Z,10.87
2019-05-23T11:10:28.964Z,10.88
2019-05-23T11:12:57.807Z,10.84
2019-05-23T11:15:26.747Z,10.88
2019-05-23T11:17:55.606Z,10.88
2019-05-23T11:20:24.770Z,10.94
2019-05-23T11:22:53.626Z,10.90
2019-05-23T11:25:23.445Z,10.94
2019-05-23T11:27:52.506Z,10.97
2019-05-23T11:30:28.687Z,10.94
2019-05-23T11:32:57.646Z,11.00
2019-05-23T11:35:26.466Z,10.94
2019-05-23T11:37:55.335Z,10.91
2019-05-23T11:40:24.266Z,10.95
2019-05-23T11:42:53.149Z,10.91
2019-05-23T11:45:24.106Z,10.76
2019-05-23T11:47:53.367Z,10.86
2019-05-23T11:50:22.217Z,10.92
2019-05-23T11:52:51.226Z,10.95
2019-05-23T11:55:20.893Z,10.97
2019-05-23T11:57:49.746Z,10.95
2019-05-23T12:00:22.677Z,10.96
2019-05-23T12:02:51.687Z,10.92
2019-05-23T12:05:27.876Z,10.83
2019-05-23T12:07:56.807Z,10.89
2019-05-23T12:10:25.844Z,10.89
2019-05-23T12:12:54.726Z,10.85
2019-05-23T12:15:25.253Z,10.86
2019-05-23T12:17:55.210Z,10.95
2019-05-23T12:20:24.266Z,10.95
2019-05-23T12:22:53.445Z,10.92
2019-05-23T12:25:24.028Z,10.92
2019-05-23T12:27:52.870Z,10.95
2019-05-23T12:30:22.744Z,10.98
2019-05-23T12:32:51.611Z,10.98
2019-05-23T12:35:20.451Z,11.02
2019-05-23T12:37:49.365Z,11.10
2019-05-23T12:40:18.486Z,11.17
2019-05-23T12:42:47.350Z,11.16
2019-05-23T12:45:17.012Z,11.18
2019-05-23T12:47:59.904Z,11.15
2019-05-23T12:50:30.305Z,11.17
2019-05-23T12:52:59.267Z,11.10
2019-05-23T12:55:28.167Z,11.10
2019-05-23T12:57:57.112Z,11.10
2019-05-23T13:00:30.236Z,11.05
2019-05-23T13:02:59.226Z,10.98
2019-05-23T13:05:28.677Z,11.01
2019-05-23T13:07:57.486Z,11.05
2019-05-23T13:10:26.378Z,11.12
2019-05-23T13:12:55.307Z,11.17
2019-05-23T13:15:24.326Z,11.21
2019-05-23T13:17:53.206Z,11.31
2019-05-23T13:20:22.466Z,11.32
2019-05-23T13:22:51.307Z,11.33
2019-05-23T13:25:20.646Z,11.31
2019-05-23T13:27:49.634Z,11.35
2019-05-23T13:30:18.996Z,11.35
2019-05-23T13:32:47.907Z,11.40
2019-05-23T13:35:16.946Z,11.40
2019-05-23T13:37:53.512Z,11.49
2019-05-23T13:40:16.566Z,11.62
2019-05-23T13:42:46.205Z,11.54
2019-05-23T13:45:15.646Z,11.58
2019-05-23T13:47:44.887Z,11.66
2019-05-23T13:50:14.634Z,11.70
2019-05-23T13:52:43.706Z,11.70
2019-05-23T13:55:13.103Z,11.77
2019-05-23T13:57:42.033Z,11.82
2019-05-23T14:00:12.848Z,11.88
2019-05-23T14:02:42.277Z,11.86
2019-05-23T14:05:11.731Z,11.82
2019-05-23T14:07:40.587Z,11.80
2019-05-23T14:10:10.766Z,11.91
2019-05-23T14:12:39.707Z,11.98
2019-05-23T14:15:11.147Z,12.02
2019-05-23T14:17:43.129Z,12.08
2019-05-23T14:20:13.574Z,12.16
2019-05-23T14:22:44.227Z,12.17
2019-05-23T14:25:14.146Z,12.14
2019-05-23T14:27:47.458Z,12.13
2019-05-23T14:30:37.715Z,12.16
2019-05-23T14:33:27.798Z,12.03
2019-05-23T14:35:58.469Z,12.01
2019-05-23T14:38:31.559Z,12.10
2019-05-23T14:41:00.618Z,12.11
2019-05-23T14:43:30.069Z,12.13
2019-05-23T14:46:00.627Z,12.15
2019-05-23T14:48:40.791Z,12.04
2019-05-23T14:51:26.570Z,12.07
2019-05-23T14:54:03.546Z,12.01
2019-05-23T14:56:34.201Z,11.95
2019-05-23T14:59:03.463Z,11.99
2019-05-23T15:01:33.846Z,12.00
2019-05-23T15:04:03.227Z,12.04
2019-05-23T15:06:32.032Z,12.12
2019-05-23T15:09:00.988Z,12.05
2019-05-23T15:11:29.951Z,12.19
2019-05-23T15:13:59.313Z,12.25
2019-05-23T15:16:29.123Z,12.24
2019-05-23T15:18:58.041Z,12.20
2019-05-23T15:21:27.105Z,12.29
2019-05-23T15:23:55.936Z,12.29
2019-05-23T15:26:24.989Z,12.28
2019-05-23T15:28:53.926Z,12.39
2019-05-23T15:31:23.288Z,12.37
2019-05-23T15:33:52.218Z,12.45
2019-05-23T15:36:21.166Z,12.34
2019-05-23T15:39:07.572Z,12.43
2019-05-23T15:41:20.627Z,12.49
2019-05-23T15:43:49.628Z,12.50
2019-05-23T15:46:18.586Z,12.57
2019-05-23T15:48:47.426Z,12.61
2019-05-23T15:51:18.126Z,12.66
2019-05-23T15:53:51.606Z,12.71
2019-05-23T15:56:28.862Z,12.78
2019-05-23T15:58:59.603Z,12.66
2019-05-23T16:01:32.995Z,12.70
2019-05-23T16:04:03.725Z,12.73
2019-05-23T16:06:34.208Z,12.68
2019-05-23T16:09:03.386Z,12.71
2019-05-23T16:11:32.486Z,12.70
2019-05-23T16:14:01.688Z,12.65
2019-05-23T16:16:31.263Z,12.70
2019-05-23T16:19:00.606Z,12.75
2019-05-23T16:21:31.006Z,12.82
2019-05-23T16:24:00.293Z,12.88
2019-05-23T16:26:29.868Z,12.93
2019-05-23T16:28:58.750Z,12.86
2019-05-23T16:31:27.648Z,12.91
2019-05-23T16:33:56.452Z,12.88
2019-05-23T16:36:25.525Z,12.90
2019-05-23T16:38:54.486Z,12.78
2019-05-23T16:41:23.346Z,12.68
2019-05-23T16:43:52.210Z,12.52
2019-05-23T16:46:21.371Z,12.78
2019-05-23T16:48:51.216Z,12.64
2019-05-23T16:51:20.856Z,12.52
2019-05-23T16:53:49.763Z,12.47
2019-05-23T16:56:26.344Z,12.41
2019-05-23T16:58:56.923Z,12.43
2019-05-23T17:01:33.524Z,12.39
2019-05-23T17:04:04.050Z,12.32
2019-05-23T17:06:50.629Z,12.23
2019-05-23T17:09:33.293Z,12.21
2019-05-23T17:12:19.999Z,12.19
2019-05-23T17:14:52.003Z,12.10
2019-05-23T17:17:49.493Z,12.14
2019-05-23T17:20:19.704Z,12.16
2019-05-23T17:22:50.824Z,12.07
2019-05-23T17:25:37.698Z,12.02
2019-05-23T17:28:11.148Z,12.12
2019-05-23T17:30:51.150Z,12.19
2019-05-23T17:33:20.246Z,12.19
2019-05-23T17:35:49.316Z,12.26
2019-05-23T17:38:18.185Z,12.24
2019-05-23T17:40:47.246Z,12.21
2019-05-23T17:43:16.148Z,12.14
2019-05-23T17:45:45.290Z,12.15
2019-05-23T17:48:14.145Z,12.23
2019-05-23T17:50:43.026Z,12.17
2019-05-23T17:53:12.063Z,12.17
2019-05-23T17:55:41.005Z,12.26
2019-05-23T17:58:09.885Z,12.28
2019-05-23T18:00:40.346Z,12.31
2019-05-23T18:03:10.407Z,12.34
2019-05-23T18:05:39.619Z,12.33
2019-05-23T18:08:10.243Z,12.36
2019-05-23T18:10:45.301Z,12.35
2019-05-23T18:13:10.445Z,12.32
2019-05-23T18:15:40.904Z,12.27
2019-05-23T18:18:10.367Z,12.15
2019-05-23T18:20:40.224Z,12.12
2019-05-23T18:23:10.543Z,12.05
2019-05-23T18:25:39.984Z,12.02
2019-05-23T18:28:11.065Z,11.98
2019-05-23T18:30:50.351Z,11.84
2019-05-23T18:33:19.885Z,11.79
2019-05-23T18:35:49.500Z,11.75
2019-05-23T18:38:21.145Z,11.68
2019-05-23T18:41:02.845Z,11.68
2019-05-23T18:43:21.206Z,11.66
2019-05-23T18:45:51.803Z,11.69
2019-05-23T18:48:21.145Z,11.68
2019-05-23T18:50:50.424Z,11.77
2019-05-23T18:53:21.209Z,11.78
2019-05-23T18:55:50.145Z,11.74
2019-05-23T18:58:20.425Z,11.64
2019-05-23T19:00:57.135Z,11.57
2019-05-23T19:03:26.292Z,11.62
2019-05-23T19:05:55.444Z,11.60
2019-05-23T19:08:24.466Z,11.67
2019-05-23T19:10:53.895Z,11.63
2019-05-23T19:13:26.474Z,11.73
2019-05-23T19:15:53.969Z,11.73
2019-05-23T19:18:24.487Z,11.65
2019-05-23T19:20:55.095Z,11.67
2019-05-23T19:23:25.127Z,11.64
2019-05-23T19:25:55.290Z,11.63
2019-05-23T19:28:25.269Z,11.55
2019-05-23T19:30:54.726Z,11.68
2019-05-23T19:33:25.521Z,11.66
2019-05-23T19:35:55.366Z,11.54
2019-05-23T19:38:25.349Z,11.62
2019-05-23T19:40:54.786Z,11.67
2019-05-23T19:43:23.966Z,11.72
2019-05-23T19:45:53.526Z,11.64
2019-05-23T19:48:23.746Z,11.61
2019-05-23T19:50:53.311Z,11.64
2019-05-23T19:53:22.168Z,11.52
2019-05-23T19:55:51.720Z,11.42
2019-05-23T19:58:20.876Z,11.41
2019-05-23T20:00:50.305Z,11.40
2019-05-23T20:03:19.924Z,11.34
2019-05-23T20:05:50.625Z,11.34
2019-05-23T20:08:19.546Z,11.33
2019-05-23T20:10:48.487Z,11.32
2019-05-23T20:13:18.808Z,11.28
2019-05-23T20:15:48.906Z,11.27
2019-05-23T20:18:18.528Z,11.25
2019-05-23T20:20:47.544Z,11.27
2019-05-23T20:23:18.045Z,11.22
2019-05-23T20:25:47.087Z,11.27
2019-05-23T20:28:16.147Z,11.41
2019-05-23T20:30:48.646Z,11.27
2019-05-23T20:33:17.686Z,11.26
2019-05-23T20:35:46.726Z,11.21
2019-05-23T20:38:15.805Z,11.21
2019-05-23T20:40:44.666Z,11.29
2019-05-23T20:43:13.634Z,11.32
2019-05-23T20:45:42.576Z,11.32
2019-05-23T20:48:11.744Z,11.29
2019-05-23T20:50:40.830Z,11.30
2019-05-23T20:53:10.424Z,11.35
2019-05-23T20:55:39.312Z,11.48
2019-05-23T20:58:08.344Z,11.36
2019-05-23T21:00:39.607Z,11.52
2019-05-23T21:03:08.586Z,11.52
2019-05-23T21:05:37.990Z,11.51
2019-05-23T21:08:07.077Z,11.48
2019-05-23T21:10:44.706Z,11.49
2019-05-23T21:13:14.986Z,11.46
2019-05-23T21:15:43.906Z,11.48
2019-05-23T21:18:13.326Z,11.38
2019-05-23T21:20:42.101Z,11.23
2019-05-23T21:23:11.592Z,11.28
2019-05-23T21:25:42.106Z,11.36
2019-05-23T21:28:10.964Z,11.46
2019-05-23T21:30:39.784Z,11.32
2019-05-23T21:33:08.643Z,11.19
2019-05-23T21:35:37.754Z,11.13
2019-05-23T21:38:07.051Z,11.14
2019-05-23T21:40:38.785Z,11.40
2019-05-23T21:43:07.666Z,11.36
2019-05-23T21:45:36.583Z,11.30
2019-05-23T21:48:05.967Z,11.15
2019-05-23T21:50:34.985Z,11.12
2019-05-23T21:53:04.106Z,11.03
2019-05-23T21:55:38.106Z,11.19
2019-05-23T21:58:08.446Z,11.10
2019-05-23T22:01:06.047Z,10.96
2019-05-23T22:03:38.691Z,11.00
2019-05-23T22:06:11.098Z,11.06
2019-05-23T22:08:40.330Z,10.95
2019-05-23T22:11:09.888Z,11.20
2019-05-23T22:13:38.785Z,11.28
2019-05-23T22:16:08.347Z,11.20
2019-05-23T22:18:37.186Z,11.13
2019-05-23T22:21:06.126Z,11.03
2019-05-23T22:23:35.246Z,11.04
2019-05-23T22:26:04.129Z,10.90
2019-05-23T22:28:33.166Z,10.92
2019-05-23T22:31:02.187Z,10.95
2019-05-23T22:33:49.130Z,10.86
2019-05-23T22:36:19.928Z,10.96
2019-05-23T22:38:48.886Z,10.97
2019-05-23T22:41:18.133Z,10.90
2019-05-23T22:43:47.145Z,10.84
2019-05-23T22:46:16.369Z,10.92
2019-05-23T22:48:45.246Z,10.95
2019-05-23T22:51:14.070Z,10.91
2019-05-23T22:53:42.926Z,10.92
2019-05-23T22:56:11.790Z,10.88
2019-05-23T22:58:40.657Z,10.76
2019-05-23T23:01:11.326Z,10.75
2019-05-23T23:03:40.146Z,10.78
2019-05-23T23:06:09.385Z,10.68
2019-05-23T23:08:38.411Z,10.78
2019-05-23T23:11:07.286Z,10.77
2019-05-23T23:13:39.394Z,10.79
2019-05-23T23:16:09.386Z,10.69
2019-05-23T23:18:38.315Z,10.57
2019-05-23T23:21:07.370Z,10.55
2019-05-23T23:23:36.187Z,10.57
2019-05-23T23:26:05.082Z,10.54
2019-05-23T23:28:34.486Z,10.30
2019-05-23T23:31:03.408Z,10.20
2019-05-23T23:33:32.269Z,10.41
2019-05-23T23:36:01.108Z,10.30
2019-05-23T23:38:31.430Z,10.32
2019-05-23T23:41:00.327Z,10.30
2019-05-23T23:43:29.246Z,10.22
2019-05-23T23:46:15.787Z,10.19
2019-05-23T23:49:02.766Z,10.14
2019-05-23T23:51:49.308Z,9.96
2019-05-23T23:54:36.125Z,9.90
2019-05-23T23:57:22.866Z,9.96
2019-05-23T23:59:50.888Z,9.74
